YLJ weather

Meadow Lake Airport
Meadow Lake, Saskatchewan, Canada

Public forecast

Using degrees Celsius for public forecast. Weather courtesy of forecast.io.

METAR (pilot weather report)

Retrieved 2019/03/20 18:00 UTC (58 minutes ago):

CYLJ 201800Z 27004KT 15SM SKC 08/M02 A3007 RMK SLP207

TAF (pilot weather forecast)

Closest forecast is CFB Cold Lake, 63.8 nm (118.2 km) WNW. Retrieved 2019/03/20 18:35 UTC (23 minutes ago):

TAF CYOD 201732Z 2018/2118 VRB03KT P6SM FEW300 BECMG 2018/2020 25010KT BECMG 2100/2102 VRB03KT RMK NXT FCST BY 202100Z